createdAt,value
2019-01-25T00:00:32.378Z,157.73
2019-01-25T00:03:02.237Z,145.97
2019-01-25T00:05:30.950Z,180.03
2019-01-25T00:07:59.336Z,188.73
2019-01-25T00:10:27.771Z,209.60
2019-01-25T00:12:56.225Z,197.17
2019-01-25T00:15:25.015Z,205.40
2019-01-25T00:17:53.461Z,202.93
2019-01-25T00:20:21.891Z,195.63
2019-01-25T00:22:50.325Z,190.93
2019-01-25T00:25:19.102Z,183.73
2019-01-25T00:27:47.541Z,183.63
2019-01-25T00:30:18.224Z,175.70
2019-01-25T00:32:46.696Z,167.33
2019-01-25T00:35:15.090Z,178.20
2019-01-25T00:37:43.550Z,169.10
2019-01-25T00:40:17.638Z,183.63
2019-01-25T00:42:46.089Z,173.17
2019-01-25T00:45:14.513Z,157.37
2019-01-25T00:47:42.982Z,169.47
2019-01-25T00:50:17.185Z,157.90
2019-01-25T00:52:45.621Z,165.77
2019-01-25T00:55:14.088Z,158.67
2019-01-25T00:57:42.528Z,153.77
2019-01-25T01:00:23.258Z,165.87
2019-01-25T01:02:51.659Z,158.63
2019-01-25T01:05:20.592Z,154.67
2019-01-25T01:07:50.920Z,184.60
2019-01-25T01:10:19.557Z,192.67
2019-01-25T01:12:48.016Z,167.73
2019-01-25T01:15:16.447Z,183.53
2019-01-25T01:17:45.279Z,199.07
2019-01-25T01:20:16.053Z,189.53
2019-01-25T01:22:44.478Z,162.97
2019-01-25T01:25:13.564Z,191.90
2019-01-25T01:27:41.956Z,190.37
2019-01-25T01:30:13.622Z,182.23
2019-01-25T01:32:42.051Z,195.60
2019-01-25T01:35:10.495Z,210.00
2019-01-25T01:37:38.944Z,179.40
2019-01-25T01:40:21.707Z,181.83
2019-01-25T01:42:46.128Z,164.57
2019-01-25T01:45:14.561Z,179.40
2019-01-25T01:47:42.951Z,169.30
2019-01-25T01:50:13.878Z,175.73
2019-01-25T01:52:42.737Z,191.57
2019-01-25T01:55:11.282Z,180.53
2019-01-25T01:57:39.718Z,173.23
2019-01-25T02:00:13.950Z,190.40
2019-01-25T02:02:42.360Z,178.63
2019-01-25T02:05:10.792Z,169.30
2019-01-25T02:07:39.246Z,178.93
2019-01-25T02:10:11.101Z,166.40
2019-01-25T02:12:39.848Z,175.43
2019-01-25T02:15:10.939Z,158.13
2019-01-25T02:17:39.375Z,154.57
2019-01-25T02:20:11.099Z,162.87
2019-01-25T02:22:39.916Z,162.80
2019-01-25T02:25:08.374Z,174.20
2019-01-25T02:27:36.800Z,163.63
2019-01-25T02:30:11.222Z,155.33
2019-01-25T02:32:40.051Z,160.00
2019-01-25T02:35:09.119Z,163.57
2019-01-25T02:37:37.932Z,178.70
2019-01-25T02:40:09.505Z,198.43
2019-01-25T02:42:37.934Z,221.03
2019-01-25T02:45:09.415Z,265.93
2019-01-25T02:47:38.189Z,300.47
2019-01-25T02:50:09.896Z,435.30
2019-01-25T02:52:38.335Z,355.63
2019-01-25T02:55:08.729Z,356.40
2019-01-25T02:57:37.129Z,363.87
2019-01-25T03:00:11.821Z,283.97
2019-01-25T03:02:40.180Z,289.90
2019-01-25T03:05:09.457Z,343.23
2019-01-25T03:07:37.880Z,322.80
2019-01-25T03:10:12.590Z,357.23
2019-01-25T03:12:41.025Z,286.20
2019-01-25T03:15:17.227Z,343.80
2019-01-25T03:17:45.670Z,295.63
2019-01-25T03:20:16.590Z,281.83
2019-01-25T03:22:44.983Z,240.00
2019-01-25T03:25:16.009Z,272.23
2019-01-25T03:27:44.416Z,273.27
2019-01-25T03:30:18.456Z,292.30
2019-01-25T03:32:47.097Z,241.03
2019-01-25T03:35:17.131Z,227.03
2019-01-25T03:37:45.622Z,241.17
2019-01-25T03:40:24.953Z,226.17
2019-01-25T03:42:53.423Z,186.07
2019-01-25T03:45:21.836Z,193.70
2019-01-25T03:47:50.258Z,187.10
2019-01-25T03:50:21.237Z,182.23
2019-01-25T03:52:49.670Z,171.50
2019-01-25T03:55:18.131Z,186.73
2019-01-25T03:57:46.526Z,192.60
2019-01-25T04:00:20.752Z,201.43
2019-01-25T04:02:49.208Z,202.07
2019-01-25T04:05:18.119Z,218.03
2019-01-25T04:07:47.225Z,248.87
2019-01-25T04:10:20.563Z,201.30
2019-01-25T04:12:48.934Z,220.67
2019-01-25T04:15:22.331Z,243.53
2019-01-25T04:17:50.826Z,209.57
2019-01-25T04:20:21.511Z,219.47
2019-01-25T04:22:49.914Z,222.73
2019-01-25T04:25:20.288Z,233.67
2019-01-25T04:27:48.788Z,228.67
2019-01-25T04:30:20.007Z,226.50
2019-01-25T04:32:48.778Z,233.43
2019-01-25T04:35:17.198Z,242.57
2019-01-25T04:37:45.646Z,222.67
2019-01-25T04:40:16.031Z,210.57
2019-01-25T04:42:44.409Z,212.23
2019-01-25T04:45:17.839Z,233.50
2019-01-25T04:47:46.328Z,221.47
2019-01-25T04:50:19.729Z,211.17
2019-01-25T04:52:48.202Z,197.13
2019-01-25T04:55:28.248Z,220.93
2019-01-25T04:58:14.676Z,200.47
2019-01-25T05:00:43.431Z,222.23
2019-01-25T05:03:11.867Z,201.73
2019-01-25T05:05:40.230Z,219.83
2019-01-25T05:08:19.066Z,195.47
2019-01-25T05:10:47.363Z,193.83
2019-01-25T05:13:15.743Z,168.27
2019-01-25T05:15:44.166Z,186.20
2019-01-25T05:18:12.559Z,179.00
2019-01-25T05:20:40.923Z,188.60
2019-01-25T05:23:09.891Z,188.07
2019-01-25T05:25:38.309Z,194.07
2019-01-25T05:28:09.880Z,204.33
2019-01-25T05:30:38.391Z,193.03
2019-01-25T05:33:06.780Z,187.37
2019-01-25T05:35:36.866Z,185.73
2019-01-25T05:38:05.158Z,195.93
2019-01-25T05:40:33.547Z,215.50
2019-01-25T05:43:01.921Z,203.77
2019-01-25T05:45:30.321Z,232.70
2019-01-25T05:47:58.722Z,231.53
2019-01-25T05:50:27.109Z,219.57
2019-01-25T05:52:55.485Z,224.30
2019-01-25T05:55:24.125Z,209.40
2019-01-25T05:57:57.315Z,220.43
2019-01-25T06:00:29.830Z,187.37
2019-01-25T06:03:02.772Z,170.40
2019-01-25T06:05:31.117Z,189.63
2019-01-25T06:07:59.839Z,193.20
2019-01-25T06:10:31.471Z,194.40
2019-01-25T06:12:59.825Z,193.63
2019-01-25T06:15:29.075Z,194.23
2019-01-25T06:18:03.049Z,189.13
2019-01-25T06:20:31.441Z,193.03
2019-01-25T06:22:59.848Z,187.60
2019-01-25T06:25:28.215Z,168.07
2019-01-25T06:27:57.464Z,171.43
2019-01-25T06:30:25.860Z,163.00
2019-01-25T06:32:54.249Z,150.40
2019-01-25T06:35:22.578Z,170.40
2019-01-25T06:37:50.918Z,175.70
2019-01-25T06:40:19.312Z,163.33
2019-01-25T06:42:47.626Z,169.20
2019-01-25T06:45:16.307Z,170.73
2019-01-25T06:47:44.717Z,160.70
2019-01-25T06:50:13.882Z,175.93
2019-01-25T06:52:42.294Z,165.80
2019-01-25T06:55:10.673Z,169.20
2019-01-25T06:57:43.651Z,157.73
2019-01-25T07:00:18.740Z,155.80
2019-01-25T07:02:47.093Z,159.87
2019-01-25T07:05:15.493Z,155.17
2019-01-25T07:07:45.707Z,157.73
2019-01-25T07:10:17.110Z,150.73
2019-01-25T07:12:45.461Z,151.33
2019-01-25T07:15:15.451Z,164.67
2019-01-25T07:17:43.863Z,156.37
2019-01-25T07:20:17.072Z,187.43
2019-01-25T07:22:45.479Z,198.87
2019-01-25T07:25:15.615Z,179.60
2019-01-25T07:27:43.986Z,205.37
2019-01-25T07:30:14.537Z,194.23
2019-01-25T07:32:42.875Z,187.13
2019-01-25T07:35:11.301Z,181.77
2019-01-25T07:37:39.643Z,177.93
2019-01-25T07:40:09.633Z,185.40
2019-01-25T07:42:38.026Z,230.70
2019-01-25T07:45:12.584Z,235.57
2019-01-25T07:47:41.016Z,256.43
2019-01-25T07:50:12.730Z,212.37
2019-01-25T07:52:41.115Z,202.27
2019-01-25T07:55:11.229Z,183.50
2019-01-25T07:57:39.665Z,175.30
2019-01-25T08:00:13.523Z,182.37
2019-01-25T08:02:41.883Z,182.17
2019-01-25T08:05:10.730Z,183.20
2019-01-25T08:07:39.319Z,167.70
2019-01-25T08:10:16.166Z,172.40
2019-01-25T08:12:44.543Z,175.73
2019-01-25T08:15:19.385Z,172.57
2019-01-25T08:17:47.790Z,199.90
2019-01-25T08:20:16.199Z,197.60
2019-01-25T08:22:44.904Z,243.63
2019-01-25T08:25:13.301Z,303.43
2019-01-25T08:27:41.687Z,260.07
2019-01-25T08:30:13.374Z,266.27
2019-01-25T08:32:41.719Z,271.60
2019-01-25T08:35:11.344Z,290.33
2019-01-25T08:37:39.999Z,241.50
2019-01-25T08:40:16.107Z,234.63
2019-01-25T08:42:44.677Z,219.43
2019-01-25T08:45:14.721Z,219.27
2019-01-25T08:47:43.252Z,238.63
2019-01-25T08:50:22.621Z,216.07
2019-01-25T08:52:51.010Z,224.77
2019-01-25T08:55:21.317Z,224.57
2019-01-25T08:57:49.385Z,213.97
2019-01-25T09:00:20.566Z,212.23
2019-01-25T09:02:48.833Z,202.57
2019-01-25T09:05:17.889Z,181.87
2019-01-25T09:07:46.273Z,195.10
2019-01-25T09:10:19.621Z,196.67
2019-01-25T09:12:48.080Z,201.60
2019-01-25T09:15:22.652Z,204.83
2019-01-25T09:17:51.306Z,195.20
2019-01-25T09:20:23.214Z,184.17
2019-01-25T09:22:51.883Z,168.80
2019-01-25T09:25:20.313Z,165.77
2019-01-25T09:27:48.619Z,165.70
2019-01-25T09:30:22.201Z,163.57
2019-01-25T09:32:50.899Z,169.00
2019-01-25T09:35:19.364Z,168.63
2019-01-25T09:37:48.981Z,150.03
2019-01-25T09:40:21.703Z,150.37
2019-01-25T09:42:50.659Z,158.10
2019-01-25T09:45:19.099Z,158.97
2019-01-25T09:47:47.563Z,156.63
2019-01-25T09:50:20.855Z,138.63
2019-01-25T09:52:49.230Z,149.10
2019-01-25T09:55:20.454Z,152.27
2019-01-25T09:57:48.894Z,162.10
2019-01-25T10:00:29.014Z,147.83
2019-01-25T10:02:57.344Z,173.20
2019-01-25T10:05:25.727Z,173.13
2019-01-25T10:07:54.132Z,189.07
2019-01-25T10:10:22.858Z,174.17
2019-01-25T10:12:51.265Z,164.90
2019-01-25T10:15:25.430Z,177.10
2019-01-25T10:17:53.820Z,155.17
2019-01-25T10:20:22.201Z,159.63
2019-01-25T10:22:50.573Z,141.20
2019-01-25T10:25:18.974Z,151.60
2019-01-25T10:27:47.382Z,150.33
2019-01-25T10:30:29.147Z,150.77
2019-01-25T10:32:57.530Z,158.93
2019-01-25T10:35:25.917Z,146.83
2019-01-25T10:37:54.341Z,147.50
2019-01-25T10:40:23.547Z,142.33
2019-01-25T10:42:53.433Z,140.77
2019-01-25T10:45:33.465Z,148.83
2019-01-25T10:48:01.857Z,139.73
2019-01-25T10:50:30.191Z,153.33
2019-01-25T10:52:58.560Z,156.23
2019-01-25T10:55:26.882Z,161.87
2019-01-25T10:57:55.258Z,162.50
2019-01-25T11:00:23.601Z,173.60
2019-01-25T11:02:57.921Z,162.57
2019-01-25T11:05:27.970Z,159.13
2019-01-25T11:07:56.339Z,151.07
2019-01-25T11:10:24.640Z,170.53
2019-01-25T11:13:00.532Z,167.70
2019-01-25T11:15:24.127Z,168.30
2019-01-25T11:17:52.567Z,170.57
2019-01-25T11:20:23.928Z,171.67
2019-01-25T11:22:52.751Z,143.13
2019-01-25T11:25:29.947Z,175.40
2019-01-25T11:27:58.316Z,152.97
2019-01-25T11:30:26.726Z,153.57
2019-01-25T11:32:55.111Z,147.17
2019-01-25T11:35:23.423Z,154.87
2019-01-25T11:37:51.823Z,142.80
2019-01-25T11:40:23.455Z,151.00
2019-01-25T11:42:51.846Z,151.23
2019-01-25T11:45:20.252Z,143.53
2019-01-25T11:47:48.626Z,147.13
2019-01-25T11:50:18.974Z,162.17
2019-01-25T11:52:47.429Z,161.27
2019-01-25T11:55:17.595Z,164.67
2019-01-25T11:57:46.006Z,166.43
2019-01-25T12:00:31.730Z,146.53
2019-01-25T12:03:00.080Z,140.43
2019-01-25T12:05:28.379Z,162.03
2019-01-25T12:07:56.789Z,151.70
2019-01-25T12:10:30.822Z,159.33
2019-01-25T12:12:59.210Z,160.27
2019-01-25T12:15:27.602Z,167.33
2019-01-25T12:17:55.992Z,165.37
2019-01-25T12:20:26.638Z,151.47
2019-01-25T12:22:54.932Z,143.40
2019-01-25T12:25:23.245Z,150.80
2019-01-25T12:27:51.627Z,154.77
2019-01-25T12:30:28.491Z,134.40
2019-01-25T12:32:56.884Z,131.43
2019-01-25T12:35:26.899Z,136.70
2019-01-25T12:37:55.267Z,135.67
2019-01-25T12:40:23.964Z,160.53
2019-01-25T12:42:52.321Z,145.00
2019-01-25T12:45:23.530Z,144.63
2019-01-25T12:47:51.914Z,144.40
2019-01-25T12:50:35.022Z,145.33
2019-01-25T12:53:05.730Z,131.87
2019-01-25T12:55:34.474Z,150.43
2019-01-25T12:58:02.863Z,149.00
2019-01-25T13:00:31.136Z,143.57
2019-01-25T13:02:59.481Z,132.07
2019-01-25T13:05:28.669Z,132.53
2019-01-25T13:07:57.083Z,115.03
2019-01-25T13:10:26.910Z,119.70
2019-01-25T13:12:55.297Z,113.30
2019-01-25T13:15:23.696Z,117.13
2019-01-25T13:17:52.066Z,114.50
2019-01-25T13:20:28.975Z,130.63
2019-01-25T13:22:57.343Z,114.53
2019-01-25T13:25:25.734Z,112.93
2019-01-25T13:27:54.149Z,120.40
2019-01-25T13:30:25.522Z,121.10
2019-01-25T13:32:53.897Z,111.77
2019-01-25T13:35:22.306Z,113.93
2019-01-25T13:37:50.685Z,112.93
2019-01-25T13:40:22.362Z,114.80
2019-01-25T13:42:50.818Z,110.40
2019-01-25T13:45:20.342Z,100.53
2019-01-25T13:47:48.755Z,105.57
2019-01-25T13:50:25.774Z,107.87
2019-01-25T13:52:54.132Z,108.03
2019-01-25T13:55:22.500Z,109.57
2019-01-25T13:57:50.884Z,104.30
2019-01-25T14:00:25.149Z,112.30
2019-01-25T14:02:53.561Z,103.80
2019-01-25T14:05:21.920Z,106.33
2019-01-25T14:07:50.299Z,107.03
2019-01-25T14:10:24.097Z,109.97
2019-01-25T14:12:52.460Z,98.47
2019-01-25T14:15:20.772Z,103.30
2019-01-25T14:17:49.156Z,99.80
2019-01-25T14:20:23.368Z,99.37
2019-01-25T14:22:50.000Z,100.53
2019-01-25T14:25:18.382Z,95.67
2019-01-25T14:27:46.764Z,95.03
2019-01-25T14:30:33.344Z,92.40
2019-01-25T14:33:01.726Z,82.67
2019-01-25T14:35:30.137Z,87.93
2019-01-25T14:37:58.502Z,78.17
2019-01-25T14:40:26.902Z,80.60
2019-01-25T14:42:55.270Z,90.93
2019-01-25T14:45:23.578Z,75.00
2019-01-25T14:47:51.980Z,68.57
2019-01-25T14:50:28.737Z,80.23
2019-01-25T14:52:57.129Z,79.60
2019-01-25T14:55:25.509Z,82.93
2019-01-25T14:57:53.854Z,78.90
2019-01-25T15:00:22.226Z,74.97
2019-01-25T15:02:50.602Z,76.27
2019-01-25T15:05:20.034Z,73.77
2019-01-25T15:07:48.298Z,71.23
2019-01-25T15:10:18.585Z,75.43
2019-01-25T15:12:47.416Z,75.33
2019-01-25T15:15:15.790Z,71.70
2019-01-25T15:17:44.202Z,69.10
2019-01-25T15:20:18.555Z,63.27
2019-01-25T15:22:46.960Z,59.23
2019-01-25T15:25:15.318Z,65.47
2019-01-25T15:27:43.653Z,70.07
2019-01-25T15:30:21.075Z,63.13
2019-01-25T15:32:49.437Z,66.57
2019-01-25T15:35:19.484Z,60.30
2019-01-25T15:37:47.750Z,58.03
2019-01-25T15:40:17.944Z,60.87
2019-01-25T15:42:46.281Z,57.27
2019-01-25T15:45:17.119Z,58.60
2019-01-25T15:47:45.605Z,57.07
2019-01-25T15:50:22.411Z,56.27
2019-01-25T15:52:51.274Z,57.80
2019-01-25T15:55:19.889Z,58.50
2019-01-25T15:57:48.323Z,62.03
2019-01-25T16:00:21.815Z,63.67
2019-01-25T16:02:50.192Z,54.93
2019-01-25T16:05:19.689Z,64.03
2019-01-25T16:07:49.756Z,62.37
2019-01-25T16:10:20.052Z,59.17
2019-01-25T16:12:48.705Z,66.97
2019-01-25T16:15:19.062Z,71.47
2019-01-25T16:17:47.533Z,70.20
2019-01-25T16:20:18.207Z,60.97
2019-01-25T16:22:47.513Z,67.27
2019-01-25T16:25:21.371Z,71.57
2019-01-25T16:27:49.699Z,72.10
2019-01-25T16:30:20.918Z,73.37
2019-01-25T16:32:49.307Z,75.50
2019-01-25T16:35:17.669Z,89.87
2019-01-25T16:37:46.064Z,76.80
2019-01-25T16:40:16.500Z,81.97
2019-01-25T16:42:44.903Z,82.53
2019-01-25T16:45:28.307Z,84.60
2019-01-25T16:47:56.709Z,90.30
2019-01-25T16:50:25.060Z,83.70
2019-01-25T16:52:53.443Z,79.40
2019-01-25T16:55:21.815Z,81.97
2019-01-25T16:57:50.153Z,96.13
2019-01-25T17:00:33.026Z,86.07
2019-01-25T17:03:01.332Z,76.77
2019-01-25T17:05:29.689Z,88.37
2019-01-25T17:07:58.101Z,90.77
2019-01-25T17:10:26.468Z,95.17
2019-01-25T17:12:54.874Z,112.07
2019-01-25T17:15:23.589Z,104.70
2019-01-25T17:17:51.929Z,120.67
2019-01-25T17:20:25.808Z,106.63
2019-01-25T17:22:54.197Z,111.40
2019-01-25T17:25:22.929Z,115.23
2019-01-25T17:27:51.310Z,114.07
2019-01-25T17:30:28.065Z,119.70
2019-01-25T17:32:58.211Z,115.30
2019-01-25T17:35:26.596Z,127.63
2019-01-25T17:37:54.993Z,127.40
2019-01-25T17:40:26.116Z,123.70
2019-01-25T17:42:54.531Z,117.03
2019-01-25T17:45:22.912Z,106.47
2019-01-25T17:47:51.281Z,115.13
2019-01-25T17:50:19.667Z,100.57
2019-01-25T17:52:48.032Z,104.30
2019-01-25T17:55:17.650Z,92.47
2019-01-25T17:57:45.987Z,94.83
2019-01-25T18:00:22.125Z,99.87
2019-01-25T18:02:50.505Z,88.87
2019-01-25T18:05:18.885Z,107.23
2019-01-25T18:07:47.288Z,98.97
2019-01-25T18:10:18.071Z,96.07
2019-01-25T18:12:46.478Z,89.13
2019-01-25T18:15:16.492Z,91.73
2019-01-25T18:17:44.803Z,84.30
2019-01-25T18:20:21.697Z,87.07
2019-01-25T18:22:50.438Z,88.83
2019-01-25T18:25:28.150Z,94.70
2019-01-25T18:27:59.615Z,88.60
2019-01-25T18:30:34.168Z,94.93
2019-01-25T18:33:02.471Z,100.67
2019-01-25T18:35:30.847Z,105.73
2019-01-25T18:37:59.247Z,99.37
2019-01-25T18:40:27.921Z,108.10
2019-01-25T18:42:56.699Z,107.97
2019-01-25T18:45:25.003Z,111.83
2019-01-25T18:47:53.401Z,96.57
2019-01-25T18:50:21.821Z,104.10
2019-01-25T18:52:50.202Z,114.13
2019-01-25T18:55:21.711Z,107.40
2019-01-25T18:57:50.095Z,109.20
2019-01-25T19:00:20.206Z,125.03
2019-01-25T19:02:48.578Z,110.67
2019-01-25T19:05:16.992Z,107.07
2019-01-25T19:07:45.445Z,108.83
2019-01-25T19:10:22.141Z,109.80
2019-01-25T19:12:50.473Z,101.13
2019-01-25T19:15:30.092Z,121.90
2019-01-25T19:17:58.458Z,116.93
2019-01-25T19:20:26.797Z,120.10
2019-01-25T19:22:55.117Z,121.73
2019-01-25T19:25:23.442Z,135.40
2019-01-25T19:27:51.830Z,117.20
2019-01-25T19:30:25.837Z,110.33
2019-01-25T19:32:54.236Z,111.63
2019-01-25T19:35:22.606Z,105.33
2019-01-25T19:37:51.049Z,99.80
2019-01-25T19:40:25.263Z,112.47
2019-01-25T19:42:53.685Z,113.57
2019-01-25T19:45:22.465Z,106.23
2019-01-25T19:47:50.876Z,101.13
2019-01-25T19:50:22.292Z,109.10
2019-01-25T19:52:50.675Z,108.30
2019-01-25T19:55:27.261Z,115.50
2019-01-25T19:57:55.964Z,125.43
2019-01-25T20:00:27.608Z,120.90
2019-01-25T20:02:56.046Z,124.90
2019-01-25T20:05:26.871Z,115.40
2019-01-25T20:07:55.252Z,127.63
2019-01-25T20:10:23.640Z,140.53
2019-01-25T20:12:52.346Z,160.20
2019-01-25T20:15:22.596Z,149.50
2019-01-25T20:17:50.965Z,133.50
2019-01-25T20:20:24.671Z,163.30
2019-01-25T20:22:53.124Z,155.17
2019-01-25T20:25:21.495Z,173.80
2019-01-25T20:27:49.877Z,173.87
2019-01-25T20:30:26.665Z,166.13
2019-01-25T20:32:55.066Z,177.67
2019-01-25T20:35:25.987Z,166.70
2019-01-25T20:37:54.526Z,156.13
2019-01-25T20:40:22.967Z,162.60
2019-01-25T20:42:51.355Z,162.90
2019-01-25T20:45:31.971Z,161.90
2019-01-25T20:48:00.332Z,162.07
2019-01-25T20:50:31.499Z,157.97
2019-01-25T20:53:00.091Z,157.10
2019-01-25T20:55:28.461Z,176.70
2019-01-25T20:57:57.735Z,175.17
2019-01-25T21:00:31.290Z,192.27
2019-01-25T21:02:59.754Z,176.90
2019-01-25T21:05:28.152Z,197.70
2019-01-25T21:07:58.046Z,199.57
2019-01-25T21:10:27.917Z,206.30
2019-01-25T21:12:56.351Z,196.13
2019-01-25T21:15:34.760Z,199.87
2019-01-25T21:17:57.583Z,205.10
2019-01-25T21:20:31.703Z,183.20
2019-01-25T21:23:00.144Z,211.50
2019-01-25T21:25:47.951Z,197.13
2019-01-25T21:28:19.234Z,208.63
2019-01-25T21:30:47.634Z,206.37
2019-01-25T21:33:16.191Z,228.47
2019-01-25T21:35:44.639Z,221.60
2019-01-25T21:38:13.030Z,196.47
2019-01-25T21:40:41.379Z,220.33
2019-01-25T21:43:09.686Z,222.67
2019-01-25T21:45:42.936Z,203.10
2019-01-25T21:48:08.626Z,211.13
2019-01-25T21:50:40.569Z,209.03
2019-01-25T21:53:08.952Z,189.40
2019-01-25T21:55:37.348Z,234.57
2019-01-25T21:58:05.840Z,258.27
2019-01-25T22:00:35.526Z,235.33
2019-01-25T22:03:04.274Z,229.70
2019-01-25T22:05:32.603Z,239.33
2019-01-25T22:08:00.944Z,235.33
2019-01-25T22:10:37.731Z,226.60
2019-01-25T22:13:06.063Z,274.87
2019-01-25T22:15:34.716Z,238.30
2019-01-25T22:18:03.213Z,194.77
2019-01-25T22:20:31.522Z,230.70
2019-01-25T22:22:59.858Z,223.90
2019-01-25T22:25:28.208Z,211.20
2019-01-25T22:27:57.154Z,240.23
2019-01-25T22:30:27.492Z,253.47
2019-01-25T22:32:55.863Z,233.40
2019-01-25T22:35:24.327Z,248.13
2019-01-25T22:37:53.237Z,244.47
2019-01-25T22:40:24.394Z,238.27
2019-01-25T22:42:52.833Z,198.73
2019-01-25T22:45:23.623Z,207.93
2019-01-25T22:47:52.001Z,194.17
2019-01-25T22:50:23.083Z,214.50
2019-01-25T22:52:51.504Z,204.53
2019-01-25T22:55:21.229Z,205.47
2019-01-25T22:57:49.663Z,210.53
2019-01-25T23:00:22.720Z,196.47
2019-01-25T23:02:51.076Z,185.80
2019-01-25T23:05:37.588Z,187.93
2019-01-25T23:08:06.180Z,177.67
2019-01-25T23:10:34.631Z,184.70
2019-01-25T23:13:03.017Z,191.03
2019-01-25T23:15:31.404Z,176.73
2019-01-25T23:17:59.794Z,175.10
2019-01-25T23:20:28.121Z,179.10
2019-01-25T23:22:56.485Z,162.80
2019-01-25T23:25:24.803Z,175.57
2019-01-25T23:27:53.335Z,170.83
2019-01-25T23:30:21.768Z,173.73
2019-01-25T23:32:50.074Z,177.30
2019-01-25T23:35:18.431Z,193.80
2019-01-25T23:37:46.743Z,184.50
2019-01-25T23:40:15.367Z,172.30
2019-01-25T23:42:43.761Z,169.93
2019-01-25T23:45:12.200Z,187.33
2019-01-25T23:47:40.527Z,185.53
2019-01-25T23:50:09.463Z,194.43
2019-01-25T23:52:37.827Z,202.13
2019-01-25T23:55:07.192Z,212.37
2019-01-25T23:57:35.558Z,183.17
